sensor_id;sensor_type;location;lat;lon;timestamp;P1;durP1;ratioP1;P2;durP2;ratioP2
353;SDS011;165;53.592;10.044;2022-11-18T00:01:57;41.93;;;24.17;;
353;SDS011;165;53.592;10.044;2022-11-18T00:04:22;44.13;;;25.83;;
353;SDS011;165;53.592;10.044;2022-11-18T00:06:51;39.63;;;22.23;;
353;SDS011;165;53.592;10.044;2022-11-18T00:09:17;40.60;;;25.50;;
353;SDS011;165;53.592;10.044;2022-11-18T00:11:43;42.30;;;23.90;;
353;SDS011;165;53.592;10.044;2022-11-18T00:14:27;46.23;;;25.23;;
353;SDS011;165;53.592;10.044;2022-11-18T00:17:00;40.47;;;25.10;;
353;SDS011;165;53.592;10.044;2022-11-18T00:19:30;39.27;;;26.67;;
353;SDS011;165;53.592;10.044;2022-11-18T00:22:03;40.87;;;25.50;;
353;SDS011;165;53.592;10.044;2022-11-18T00:24:30;54.53;;;27.13;;
353;SDS011;165;53.592;10.044;2022-11-18T00:26:56;45.17;;;25.37;;
353;SDS011;165;53.592;10.044;2022-11-18T00:29:21;44.23;;;25.83;;
353;SDS011;165;53.592;10.044;2022-11-18T00:31:52;44.50;;;27.77;;
353;SDS011;165;53.592;10.044;2022-11-18T00:34:19;38.53;;;24.27;;
353;SDS011;165;53.592;10.044;2022-11-18T00:36:46;42.90;;;25.30;;
353;SDS011;165;53.592;10.044;2022-11-18T00:39:16;47.57;;;25.63;;
353;SDS011;165;53.592;10.044;2022-11-18T00:41:43;46.43;;;25.10;;
353;SDS011;165;53.592;10.044;2022-11-18T00:44:27;45.73;;;24.93;;
353;SDS011;165;53.592;10.044;2022-11-18T00:46:53;41.77;;;25.53;;
353;SDS011;165;53.592;10.044;2022-11-18T00:49:19;44.37;;;25.03;;
353;SDS011;165;53.592;10.044;2022-11-18T00:51:44;43.00;;;25.73;;
353;SDS011;165;53.592;10.044;2022-11-18T00:54:10;41.77;;;23.07;;
353;SDS011;165;53.592;10.044;2022-11-18T00:56:36;42.13;;;24.57;;
353;SDS011;165;53.592;10.044;2022-11-18T00:59:02;37.50;;;23.00;;
353;SDS011;165;53.592;10.044;2022-11-18T01:01:28;43.50;;;24.23;;
353;SDS011;165;53.592;10.044;2022-11-18T01:03:53;56.13;;;25.57;;
353;SDS011;165;53.592;10.044;2022-11-18T01:06:19;40.83;;;24.37;;
353;SDS011;165;53.592;10.044;2022-11-18T01:08:48;40.17;;;26.07;;
353;SDS011;165;53.592;10.044;2022-11-18T01:11:14;42.40;;;27.07;;
353;SDS011;165;53.592;10.044;2022-11-18T01:13:58;43.80;;;23.90;;
353;SDS011;165;53.592;10.044;2022-11-18T01:19:02;43.20;;;25.57;;
353;SDS011;165;53.592;10.044;2022-11-18T01:21:29;44.13;;;24.80;;
353;SDS011;165;53.592;10.044;2022-11-18T01:23:55;43.90;;;24.57;;
353;SDS011;165;53.592;10.044;2022-11-18T01:26:22;48.30;;;26.80;;
353;SDS011;165;53.592;10.044;2022-11-18T01:28:54;43.30;;;25.90;;
353;SDS011;165;53.592;10.044;2022-11-18T01:31:21;46.17;;;26.77;;
353;SDS011;165;53.592;10.044;2022-11-18T01:33:49;49.57;;;30.10;;
353;SDS011;165;53.592;10.044;2022-11-18T01:36:19;46.50;;;28.83;;
353;SDS011;165;53.592;10.044;2022-11-18T01:38:46;57.20;;;28.10;;
353;SDS011;165;53.592;10.044;2022-11-18T01:41:20;50.27;;;27.70;;
353;SDS011;165;53.592;10.044;2022-11-18T01:44:00;45.83;;;26.03;;
353;SDS011;165;53.592;10.044;2022-11-18T01:46:31;49.97;;;27.13;;
353;SDS011;165;53.592;10.044;2022-11-18T01:49:08;48.20;;;27.10;;
353;SDS011;165;53.592;10.044;2022-11-18T01:51:47;50.20;;;29.20;;
353;SDS011;165;53.592;10.044;2022-11-18T01:59:30;52.50;;;30.13;;
353;SDS011;165;53.592;10.044;2022-11-18T02:02:05;45.77;;;26.80;;
353;SDS011;165;53.592;10.044;2022-11-18T02:04:38;49.13;;;29.23;;
353;SDS011;165;53.592;10.044;2022-11-18T02:07:11;53.43;;;31.03;;
353;SDS011;165;53.592;10.044;2022-11-18T02:09:39;46.07;;;27.53;;
353;SDS011;165;53.592;10.044;2022-11-18T02:12:05;48.17;;;28.80;;
353;SDS011;165;53.592;10.044;2022-11-18T02:14:34;49.87;;;29.90;;
353;SDS011;165;53.592;10.044;2022-11-18T02:23:00;45.77;;;27.60;;
353;SDS011;165;53.592;10.044;2022-11-18T02:29:02;47.27;;;28.87;;
353;SDS011;165;53.592;10.044;2022-11-18T02:32:08;51.50;;;30.00;;
353;SDS011;165;53.592;10.044;2022-11-18T02:40:15;50.90;;;28.93;;
353;SDS011;165;53.592;10.044;2022-11-18T02:42:49;48.57;;;27.83;;
353;SDS011;165;53.592;10.044;2022-11-18T02:45:21;47.03;;;29.13;;
353;SDS011;165;53.592;10.044;2022-11-18T02:47:50;54.70;;;31.30;;
353;SDS011;165;53.592;10.044;2022-11-18T02:50:18;45.93;;;29.50;;
353;SDS011;165;53.592;10.044;2022-11-18T02:52:49;53.43;;;31.60;;
353;SDS011;165;53.592;10.044;2022-11-18T02:55:20;49.10;;;28.87;;
353;SDS011;165;53.592;10.044;2022-11-18T02:57:47;59.83;;;30.77;;
353;SDS011;165;53.592;10.044;2022-11-18T03:00:18;54.50;;;30.50;;
353;SDS011;165;53.592;10.044;2022-11-18T03:02:45;49.37;;;28.07;;
353;SDS011;165;53.592;10.044;2022-11-18T03:05:18;50.70;;;28.43;;
353;SDS011;165;53.592;10.044;2022-11-18T03:07:50;45.07;;;28.27;;
353;SDS011;165;53.592;10.044;2022-11-18T03:10:27;48.33;;;28.07;;
353;SDS011;165;53.592;10.044;2022-11-18T03:15:54;43.67;;;26.97;;
353;SDS011;165;53.592;10.044;2022-11-18T03:19:15;47.37;;;29.40;;
353;SDS011;165;53.592;10.044;2022-11-18T03:21:37;43.43;;;25.83;;
353;SDS011;165;53.592;10.044;2022-11-18T03:24:13;45.33;;;26.97;;
353;SDS011;165;53.592;10.044;2022-11-18T03:26:50;45.80;;;27.77;;
353;SDS011;165;53.592;10.044;2022-11-18T03:29:20;42.63;;;26.17;;
353;SDS011;165;53.592;10.044;2022-11-18T03:31:57;45.53;;;27.60;;
353;SDS011;165;53.592;10.044;2022-11-18T03:34:40;44.73;;;27.10;;
353;SDS011;165;53.592;10.044;2022-11-18T03:37:13;44.83;;;27.43;;
353;SDS011;165;53.592;10.044;2022-11-18T03:39:44;46.07;;;26.53;;
353;SDS011;165;53.592;10.044;2022-11-18T03:42:18;45.00;;;27.80;;
353;SDS011;165;53.592;10.044;2022-11-18T03:45:25;48.33;;;28.70;;
353;SDS011;165;53.592;10.044;2022-11-18T03:51:30;43.93;;;26.13;;
353;SDS011;165;53.592;10.044;2022-11-18T03:53:44;45.97;;;27.50;;
353;SDS011;165;53.592;10.044;2022-11-18T03:56:36;48.33;;;30.10;;
353;SDS011;165;53.592;10.044;2022-11-18T03:59:09;44.17;;;26.90;;
353;SDS011;165;53.592;10.044;2022-11-18T04:01:46;46.67;;;28.93;;
353;SDS011;165;53.592;10.044;2022-11-18T04:04:21;49.77;;;29.70;;
353;SDS011;165;53.592;10.044;2022-11-18T04:09:35;52.70;;;31.03;;
353;SDS011;165;53.592;10.044;2022-11-18T04:12:10;51.73;;;29.83;;
353;SDS011;165;53.592;10.044;2022-11-18T04:14:40;49.50;;;28.70;;
353;SDS011;165;53.592;10.044;2022-11-18T04:17:11;51.63;;;30.40;;
353;SDS011;165;53.592;10.044;2022-11-18T04:19:42;50.00;;;27.87;;
353;SDS011;165;53.592;10.044;2022-11-18T04:22:08;49.03;;;30.30;;
353;SDS011;165;53.592;10.044;2022-11-18T04:24:34;53.53;;;32.60;;
353;SDS011;165;53.592;10.044;2022-11-18T04:27:00;51.37;;;29.90;;
353;SDS011;165;53.592;10.044;2022-11-18T04:29:27;45.97;;;28.20;;
353;SDS011;165;53.592;10.044;2022-11-18T04:31:54;53.53;;;30.90;;
353;SDS011;165;53.592;10.044;2022-11-18T04:34:20;51.87;;;31.30;;
353;SDS011;165;53.592;10.044;2022-11-18T04:36:46;47.87;;;29.20;;
353;SDS011;165;53.592;10.044;2022-11-18T04:39:12;51.27;;;32.30;;
353;SDS011;165;53.592;10.044;2022-11-18T04:41:38;54.90;;;30.10;;
353;SDS011;165;53.592;10.044;2022-11-18T04:44:29;54.30;;;31.67;;
353;SDS011;165;53.592;10.044;2022-11-18T04:46:56;58.47;;;33.07;;
353;SDS011;165;53.592;10.044;2022-11-18T04:49:27;53.23;;;32.43;;
353;SDS011;165;53.592;10.044;2022-11-18T04:51:53;50.23;;;28.57;;
353;SDS011;165;53.592;10.044;2022-11-18T04:54:19;56.63;;;32.17;;
353;SDS011;165;53.592;10.044;2022-11-18T04:56:48;56.37;;;32.13;;
353;SDS011;165;53.592;10.044;2022-11-18T04:59:14;56.47;;;33.03;;
353;SDS011;165;53.592;10.044;2022-11-18T05:01:43;51.70;;;31.47;;
353;SDS011;165;53.592;10.044;2022-11-18T05:04:13;52.57;;;32.33;;
353;SDS011;165;53.592;10.044;2022-11-18T05:06:40;55.07;;;33.50;;
353;SDS011;165;53.592;10.044;2022-11-18T05:09:06;52.33;;;31.00;;
353;SDS011;165;53.592;10.044;2022-11-18T05:11:32;55.37;;;33.07;;
353;SDS011;165;53.592;10.044;2022-11-18T05:14:16;53.97;;;32.87;;
353;SDS011;165;53.592;10.044;2022-11-18T05:16:43;55.00;;;31.80;;
353;SDS011;165;53.592;10.044;2022-11-18T05:19:08;57.30;;;33.73;;
353;SDS011;165;53.592;10.044;2022-11-18T05:21:34;54.83;;;31.80;;
353;SDS011;165;53.592;10.044;2022-11-18T05:24:03;54.43;;;34.53;;
353;SDS011;165;53.592;10.044;2022-11-18T05:26:31;54.67;;;32.80;;
353;SDS011;165;53.592;10.044;2022-11-18T05:28:56;54.77;;;31.90;;
353;SDS011;165;53.592;10.044;2022-11-18T05:31:22;54.47;;;32.97;;
353;SDS011;165;53.592;10.044;2022-11-18T05:33:47;52.20;;;32.60;;
353;SDS011;165;53.592;10.044;2022-11-18T05:36:14;55.97;;;31.80;;
353;SDS011;165;53.592;10.044;2022-11-18T05:38:41;56.83;;;32.70;;
353;SDS011;165;53.592;10.044;2022-11-18T05:41:08;56.60;;;32.80;;
353;SDS011;165;53.592;10.044;2022-11-18T05:43:34;52.33;;;33.07;;
353;SDS011;165;53.592;10.044;2022-11-18T05:46:00;52.03;;;31.40;;
353;SDS011;165;53.592;10.044;2022-11-18T05:48:26;63.80;;;35.30;;
353;SDS011;165;53.592;10.044;2022-11-18T05:50:53;55.83;;;33.60;;
353;SDS011;165;53.592;10.044;2022-11-18T05:53:20;54.47;;;32.93;;
353;SDS011;165;53.592;10.044;2022-11-18T05:59:06;59.33;;;34.20;;
353;SDS011;165;53.592;10.044;2022-11-18T06:01:34;60.23;;;33.63;;
353;SDS011;165;53.592;10.044;2022-11-18T06:04:02;59.20;;;33.80;;
353;SDS011;165;53.592;10.044;2022-11-18T06:06:33;58.60;;;36.10;;
353;SDS011;165;53.592;10.044;2022-11-18T06:09:01;62.07;;;34.10;;
353;SDS011;165;53.592;10.044;2022-11-18T06:11:29;55.93;;;33.20;;
353;SDS011;165;53.592;10.044;2022-11-18T06:14:04;59.80;;;36.53;;
353;SDS011;165;53.592;10.044;2022-11-18T06:16:37;56.60;;;32.67;;
353;SDS011;165;53.592;10.044;2022-11-18T06:19:04;62.87;;;35.70;;
353;SDS011;165;53.592;10.044;2022-11-18T06:21:30;56.70;;;35.03;;
353;SDS011;165;53.592;10.044;2022-11-18T06:23:57;59.87;;;36.40;;
353;SDS011;165;53.592;10.044;2022-11-18T06:26:23;60.23;;;33.87;;
353;SDS011;165;53.592;10.044;2022-11-18T06:28:49;55.07;;;34.17;;
353;SDS011;165;53.592;10.044;2022-11-18T06:31:14;56.63;;;33.93;;
353;SDS011;165;53.592;10.044;2022-11-18T06:33:40;55.33;;;32.47;;
353;SDS011;165;53.592;10.044;2022-11-18T06:36:07;58.40;;;36.33;;
353;SDS011;165;53.592;10.044;2022-11-18T06:38:33;56.63;;;34.57;;
353;SDS011;165;53.592;10.044;2022-11-18T06:41:01;59.53;;;35.67;;
353;SDS011;165;53.592;10.044;2022-11-18T06:43:27;52.87;;;30.97;;
353;SDS011;165;53.592;10.044;2022-11-18T06:46:16;62.23;;;33.90;;
353;SDS011;165;53.592;10.044;2022-11-18T06:49:05;56.30;;;33.73;;
353;SDS011;165;53.592;10.044;2022-11-18T06:51:30;61.37;;;34.17;;
353;SDS011;165;53.592;10.044;2022-11-18T06:53:56;58.87;;;31.73;;
353;SDS011;165;53.592;10.044;2022-11-18T06:56:21;54.40;;;30.40;;
353;SDS011;165;53.592;10.044;2022-11-18T06:58:51;62.07;;;34.77;;
353;SDS011;165;53.592;10.044;2022-11-18T07:01:22;55.00;;;33.03;;
353;SDS011;165;53.592;10.044;2022-11-18T07:03:49;57.43;;;33.20;;
353;SDS011;165;53.592;10.044;2022-11-18T07:06:17;59.43;;;34.13;;
353;SDS011;165;53.592;10.044;2022-11-18T07:08:47;57.00;;;32.40;;
353;SDS011;165;53.592;10.044;2022-11-18T07:11:14;60.63;;;37.23;;
353;SDS011;165;53.592;10.044;2022-11-18T07:13:42;53.37;;;32.97;;
353;SDS011;165;53.592;10.044;2022-11-18T07:16:09;62.10;;;35.97;;
353;SDS011;165;53.592;10.044;2022-11-18T07:18:39;56.30;;;33.13;;
353;SDS011;165;53.592;10.044;2022-11-18T07:21:07;59.03;;;32.60;;
353;SDS011;165;53.592;10.044;2022-11-18T07:23:38;53.40;;;32.47;;
353;SDS011;165;53.592;10.044;2022-11-18T07:26:03;62.53;;;36.23;;
353;SDS011;165;53.592;10.044;2022-11-18T07:28:29;53.50;;;32.97;;
353;SDS011;165;53.592;10.044;2022-11-18T07:31:05;60.00;;;33.77;;
353;SDS011;165;53.592;10.044;2022-11-18T07:33:33;51.50;;;30.27;;
353;SDS011;165;53.592;10.044;2022-11-18T07:36:01;49.47;;;30.23;;
353;SDS011;165;53.592;10.044;2022-11-18T07:38:29;53.47;;;31.00;;
353;SDS011;165;53.592;10.044;2022-11-18T07:40:55;51.07;;;31.10;;
353;SDS011;165;53.592;10.044;2022-11-18T07:43:26;51.90;;;31.07;;
353;SDS011;165;53.592;10.044;2022-11-18T07:45:52;54.47;;;32.00;;
353;SDS011;165;53.592;10.044;2022-11-18T07:48:17;48.20;;;28.70;;
353;SDS011;165;53.592;10.044;2022-11-18T07:50:43;47.53;;;29.30;;
353;SDS011;165;53.592;10.044;2022-11-18T07:53:08;45.30;;;28.77;;
353;SDS011;165;53.592;10.044;2022-11-18T07:55:34;44.30;;;27.57;;
353;SDS011;165;53.592;10.044;2022-11-18T07:57:59;44.87;;;27.63;;
353;SDS011;165;53.592;10.044;2022-11-18T08:00:25;43.13;;;28.30;;
353;SDS011;165;53.592;10.044;2022-11-18T08:02:50;45.43;;;28.33;;
353;SDS011;165;53.592;10.044;2022-11-18T08:05:16;44.00;;;26.60;;
353;SDS011;165;53.592;10.044;2022-11-18T08:07:42;38.60;;;26.53;;
353;SDS011;165;53.592;10.044;2022-11-18T08:10:07;45.37;;;27.43;;
353;SDS011;165;53.592;10.044;2022-11-18T08:12:33;44.00;;;26.63;;
353;SDS011;165;53.592;10.044;2022-11-18T08:14:59;41.20;;;26.43;;
353;SDS011;165;53.592;10.044;2022-11-18T08:17:24;43.03;;;25.87;;
353;SDS011;165;53.592;10.044;2022-11-18T08:19:51;45.97;;;28.90;;
353;SDS011;165;53.592;10.044;2022-11-18T08:24:52;40.80;;;26.80;;
353;SDS011;165;53.592;10.044;2022-11-18T08:27:17;38.70;;;26.53;;
353;SDS011;165;53.592;10.044;2022-11-18T08:29:43;38.13;;;26.47;;
353;SDS011;165;53.592;10.044;2022-11-18T08:32:08;60.03;;;27.83;;
353;SDS011;165;53.592;10.044;2022-11-18T08:34:34;39.33;;;26.93;;
353;SDS011;165;53.592;10.044;2022-11-18T08:37:00;40.30;;;28.03;;
353;SDS011;165;53.592;10.044;2022-11-18T08:39:25;38.90;;;26.60;;
353;SDS011;165;53.592;10.044;2022-11-18T08:41:51;40.67;;;26.93;;
353;SDS011;165;53.592;10.044;2022-11-18T08:44:16;38.47;;;25.37;;
353;SDS011;165;53.592;10.044;2022-11-18T08:46:42;43.20;;;25.63;;
353;SDS011;165;53.592;10.044;2022-11-18T08:49:11;42.23;;;26.63;;
353;SDS011;165;53.592;10.044;2022-11-18T08:51:36;44.93;;;27.83;;
353;SDS011;165;53.592;10.044;2022-11-18T08:54:02;37.43;;;26.37;;
353;SDS011;165;53.592;10.044;2022-11-18T08:56:27;39.97;;;25.47;;
353;SDS011;165;53.592;10.044;2022-11-18T08:58:53;36.10;;;24.43;;
353;SDS011;165;53.592;10.044;2022-11-18T09:01:19;37.97;;;26.67;;
353;SDS011;165;53.592;10.044;2022-11-18T09:03:45;34.63;;;24.60;;
353;SDS011;165;53.592;10.044;2022-11-18T09:06:15;34.97;;;23.93;;
353;SDS011;165;53.592;10.044;2022-11-18T09:08:42;33.03;;;23.27;;
353;SDS011;165;53.592;10.044;2022-11-18T09:11:10;35.83;;;24.23;;
353;SDS011;165;53.592;10.044;2022-11-18T09:13:37;37.23;;;24.43;;
353;SDS011;165;53.592;10.044;2022-11-18T09:16:03;33.93;;;24.00;;
353;SDS011;165;53.592;10.044;2022-11-18T09:18:29;32.50;;;25.00;;
353;SDS011;165;53.592;10.044;2022-11-18T09:20:57;30.13;;;23.67;;
353;SDS011;165;53.592;10.044;2022-11-18T09:23:25;31.93;;;23.83;;
353;SDS011;165;53.592;10.044;2022-11-18T09:26:00;30.57;;;22.70;;
353;SDS011;165;53.592;10.044;2022-11-18T09:28:31;28.87;;;22.10;;
353;SDS011;165;53.592;10.044;2022-11-18T09:30:56;31.63;;;23.20;;
353;SDS011;165;53.592;10.044;2022-11-18T09:33:22;29.77;;;22.80;;
353;SDS011;165;53.592;10.044;2022-11-18T09:35:48;29.00;;;21.57;;
353;SDS011;165;53.592;10.044;2022-11-18T09:38:14;30.00;;;20.97;;
353;SDS011;165;53.592;10.044;2022-11-18T09:44:00;25.93;;;19.77;;
353;SDS011;165;53.592;10.044;2022-11-18T09:54:50;27.73;;;21.00;;
353;SDS011;165;53.592;10.044;2022-11-18T09:57:18;23.30;;;19.70;;
353;SDS011;165;53.592;10.044;2022-11-18T09:59:49;20.93;;;17.80;;
353;SDS011;165;53.592;10.044;2022-11-18T10:02:25;25.43;;;18.10;;
353;SDS011;165;53.592;10.044;2022-11-18T10:05:23;21.43;;;16.93;;
353;SDS011;165;53.592;10.044;2022-11-18T10:07:55;24.60;;;19.00;;
353;SDS011;165;53.592;10.044;2022-11-18T10:16:17;21.77;;;17.50;;
353;SDS011;165;53.592;10.044;2022-11-18T10:24:54;17.60;;;15.57;;
353;SDS011;165;53.592;10.044;2022-11-18T10:27:21;18.30;;;15.20;;
353;SDS011;165;53.592;10.044;2022-11-18T10:29:52;17.40;;;15.70;;
353;SDS011;165;53.592;10.044;2022-11-18T10:32:21;17.37;;;15.10;;
353;SDS011;165;53.592;10.044;2022-11-18T10:34:51;15.57;;;14.47;;
353;SDS011;165;53.592;10.044;2022-11-18T10:39:52;16.30;;;13.97;;
353;SDS011;165;53.592;10.044;2022-11-18T10:42:42;15.57;;;14.17;;
353;SDS011;165;53.592;10.044;2022-11-18T10:45:15;13.30;;;12.60;;
353;SDS011;165;53.592;10.044;2022-11-18T10:47:56;13.97;;;13.27;;
353;SDS011;165;53.592;10.044;2022-11-18T10:50:32;13.83;;;13.13;;
353;SDS011;165;53.592;10.044;2022-11-18T10:52:59;12.90;;;12.20;;
353;SDS011;165;53.592;10.044;2022-11-18T10:55:27;13.87;;;13.17;;
353;SDS011;165;53.592;10.044;2022-11-18T10:57:54;13.17;;;12.47;;
353;SDS011;165;53.592;10.044;2022-11-18T11:03:30;13.70;;;13.00;;
353;SDS011;165;53.592;10.044;2022-11-18T11:06:11;13.57;;;12.87;;
353;SDS011;165;53.592;10.044;2022-11-18T11:11:35;14.63;;;13.90;;
353;SDS011;165;53.592;10.044;2022-11-18T11:14:20;14.27;;;13.57;;
353;SDS011;165;53.592;10.044;2022-11-18T11:16:58;14.93;;;14.13;;
353;SDS011;165;53.592;10.044;2022-11-18T11:19:44;14.10;;;13.40;;
353;SDS011;165;53.592;10.044;2022-11-18T11:22:15;14.63;;;13.90;;
353;SDS011;165;53.592;10.044;2022-11-18T11:24:41;15.37;;;14.57;;
353;SDS011;165;53.592;10.044;2022-11-18T11:27:27;14.10;;;13.40;;
353;SDS011;165;53.592;10.044;2022-11-18T11:30:14;14.30;;;13.60;;
353;SDS011;165;53.592;10.044;2022-11-18T11:35:41;14.63;;;13.90;;
353;SDS011;165;53.592;10.044;2022-11-18T11:41:22;15.30;;;14.50;;
353;SDS011;165;53.592;10.044;2022-11-18T11:46:45;15.77;;;14.97;;
353;SDS011;165;53.592;10.044;2022-11-18T11:50:01;16.10;;;15.30;;
353;SDS011;165;53.592;10.044;2022-11-18T11:58:12;16.90;;;16.00;;
353;SDS011;165;53.592;10.044;2022-11-18T12:01:02;16.13;;;15.33;;
353;SDS011;165;53.592;10.044;2022-11-18T12:03:51;16.37;;;15.57;;
353;SDS011;165;53.592;10.044;2022-11-18T12:06:26;16.67;;;15.83;;
353;SDS011;165;53.592;10.044;2022-11-18T12:08:55;15.40;;;14.60;;
353;SDS011;165;53.592;10.044;2022-11-18T12:14:26;16.97;;;16.10;;
353;SDS011;165;53.592;10.044;2022-11-18T12:17:11;16.00;;;15.20;;
353;SDS011;165;53.592;10.044;2022-11-18T12:19:56;17.13;;;16.23;;
353;SDS011;165;53.592;10.044;2022-11-18T12:22:21;16.90;;;16.00;;
353;SDS011;165;53.592;10.044;2022-11-18T12:24:47;16.03;;;15.23;;
353;SDS011;165;53.592;10.044;2022-11-18T12:32:23;16.63;;;15.83;;
353;SDS011;165;53.592;10.044;2022-11-18T12:34:55;17.07;;;16.17;;
353;SDS011;165;53.592;10.044;2022-11-18T12:39:57;16.20;;;15.40;;
353;SDS011;165;53.592;10.044;2022-11-18T12:48:25;15.43;;;14.63;;
353;SDS011;165;53.592;10.044;2022-11-18T12:50:56;16.13;;;15.33;;
353;SDS011;165;53.592;10.044;2022-11-18T12:53:30;16.50;;;15.70;;
353;SDS011;165;53.592;10.044;2022-11-18T12:58:44;16.93;;;16.03;;
353;SDS011;165;53.592;10.044;2022-11-18T13:01:10;15.60;;;14.80;;
353;SDS011;165;53.592;10.044;2022-11-18T13:03:37;16.73;;;15.90;;
353;SDS011;165;53.592;10.044;2022-11-18T13:06:11;15.97;;;15.17;;
353;SDS011;165;53.592;10.044;2022-11-18T13:08:48;15.30;;;14.50;;
353;SDS011;165;53.592;10.044;2022-11-18T13:11:20;14.87;;;14.07;;
353;SDS011;165;53.592;10.044;2022-11-18T13:14:05;15.00;;;14.20;;
353;SDS011;165;53.592;10.044;2022-11-18T13:16:56;14.73;;;13.97;;
353;SDS011;165;53.592;10.044;2022-11-18T13:19:40;14.00;;;13.30;;
353;SDS011;165;53.592;10.044;2022-11-18T13:22:12;14.80;;;14.00;;
353;SDS011;165;53.592;10.044;2022-11-18T13:25:00;14.97;;;14.17;;
353;SDS011;165;53.592;10.044;2022-11-18T13:27:32;14.50;;;13.80;;
353;SDS011;165;53.592;10.044;2022-11-18T13:30:11;14.83;;;14.03;;
353;SDS011;165;53.592;10.044;2022-11-18T13:32:44;13.13;;;12.43;;
353;SDS011;165;53.592;10.044;2022-11-18T13:37:58;15.40;;;14.60;;
353;SDS011;165;53.592;10.044;2022-11-18T13:40:29;13.97;;;13.27;;
353;SDS011;165;53.592;10.044;2022-11-18T13:43:02;14.23;;;13.53;;
353;SDS011;165;53.592;10.044;2022-11-18T13:45:33;14.43;;;13.73;;
353;SDS011;165;53.592;10.044;2022-11-18T13:48:21;14.13;;;13.43;;
353;SDS011;165;53.592;10.044;2022-11-18T13:50:47;12.33;;;11.73;;
353;SDS011;165;53.592;10.044;2022-11-18T13:55:55;14.23;;;13.53;;
353;SDS011;165;53.592;10.044;2022-11-18T13:59:12;12.70;;;12.00;;
353;SDS011;165;53.592;10.044;2022-11-18T14:01:15;12.40;;;11.80;;
353;SDS011;165;53.592;10.044;2022-11-18T14:06:53;13.60;;;12.90;;
353;SDS011;165;53.592;10.044;2022-11-18T14:09:51;13.40;;;12.70;;
353;SDS011;165;53.592;10.044;2022-11-18T14:12:25;13.03;;;12.33;;
353;SDS011;165;53.592;10.044;2022-11-18T14:17:57;12.80;;;12.10;;
353;SDS011;165;53.592;10.044;2022-11-18T14:20:25;13.60;;;12.90;;
353;SDS011;165;53.592;10.044;2022-11-18T14:22:53;13.67;;;12.97;;
353;SDS011;165;53.592;10.044;2022-11-18T14:25:26;13.30;;;12.60;;
353;SDS011;165;53.592;10.044;2022-11-18T14:28:10;14.33;;;13.63;;
353;SDS011;165;53.592;10.044;2022-11-18T14:30:54;13.37;;;12.67;;
353;SDS011;165;53.592;10.044;2022-11-18T14:33:28;12.97;;;12.27;;
353;SDS011;165;53.592;10.044;2022-11-18T14:41:00;13.20;;;12.50;;
353;SDS011;165;53.592;10.044;2022-11-18T14:43:27;13.70;;;13.00;;
353;SDS011;165;53.592;10.044;2022-11-18T14:45:59;13.60;;;12.90;;
353;SDS011;165;53.592;10.044;2022-11-18T14:48:27;13.80;;;13.10;;
353;SDS011;165;53.592;10.044;2022-11-18T14:50:56;14.37;;;13.67;;
353;SDS011;165;53.592;10.044;2022-11-18T14:53:21;14.07;;;13.37;;
353;SDS011;165;53.592;10.044;2022-11-18T14:55:48;14.07;;;13.37;;
353;SDS011;165;53.592;10.044;2022-11-18T14:58:15;13.47;;;12.77;;
353;SDS011;165;53.592;10.044;2022-11-18T15:00:41;17.23;;;16.33;;
353;SDS011;165;53.592;10.044;2022-11-18T15:03:07;14.30;;;13.60;;
353;SDS011;165;53.592;10.044;2022-11-18T15:05:33;22.90;;;21.20;;
353;SDS011;165;53.592;10.044;2022-11-18T15:07:59;13.20;;;12.50;;
353;SDS011;165;53.592;10.044;2022-11-18T15:10:25;12.57;;;11.93;;
353;SDS011;165;53.592;10.044;2022-11-18T15:12:51;13.33;;;12.63;;
353;SDS011;165;53.592;10.044;2022-11-18T15:15:16;12.87;;;12.17;;
353;SDS011;165;53.592;10.044;2022-11-18T15:17:45;14.43;;;13.73;;
353;SDS011;165;53.592;10.044;2022-11-18T15:20:11;14.67;;;13.93;;
353;SDS011;165;53.592;10.044;2022-11-18T15:22:41;13.93;;;13.23;;
353;SDS011;165;53.592;10.044;2022-11-18T15:25:09;14.20;;;13.50;;
353;SDS011;165;53.592;10.044;2022-11-18T15:27:35;13.10;;;12.40;;
353;SDS011;165;53.592;10.044;2022-11-18T15:30:01;13.13;;;12.43;;
353;SDS011;165;53.592;10.044;2022-11-18T15:32:26;13.50;;;12.80;;
353;SDS011;165;53.592;10.044;2022-11-18T15:34:52;14.40;;;13.70;;
353;SDS011;165;53.592;10.044;2022-11-18T15:37:19;13.43;;;12.73;;
353;SDS011;165;53.592;10.044;2022-11-18T15:39:44;13.30;;;12.60;;
353;SDS011;165;53.592;10.044;2022-11-18T15:42:10;14.10;;;13.40;;
353;SDS011;165;53.592;10.044;2022-11-18T15:44:36;12.53;;;11.90;;
353;SDS011;165;53.592;10.044;2022-11-18T15:47:02;13.53;;;12.83;;
353;SDS011;165;53.592;10.044;2022-11-18T15:49:28;13.23;;;12.53;;
353;SDS011;165;53.592;10.044;2022-11-18T15:51:57;12.90;;;12.20;;
353;SDS011;165;53.592;10.044;2022-11-18T15:54:23;95.53;;;74.47;;
353;SDS011;165;53.592;10.044;2022-11-18T15:56:49;30.77;;;26.53;;
353;SDS011;165;53.592;10.044;2022-11-18T15:59:15;13.97;;;13.27;;
353;SDS011;165;53.592;10.044;2022-11-18T16:01:41;13.43;;;12.73;;
353;SDS011;165;53.592;10.044;2022-11-18T16:04:13;14.23;;;13.53;;
353;SDS011;165;53.592;10.044;2022-11-18T16:06:40;15.43;;;14.63;;
353;SDS011;165;53.592;10.044;2022-11-18T16:09:17;30.97;;;25.27;;
353;SDS011;165;53.592;10.044;2022-11-18T16:11:43;13.17;;;12.47;;
353;SDS011;165;53.592;10.044;2022-11-18T16:14:28;13.03;;;12.33;;
353;SDS011;165;53.592;10.044;2022-11-18T16:16:54;13.40;;;12.70;;
353;SDS011;165;53.592;10.044;2022-11-18T16:19:21;13.30;;;12.60;;
353;SDS011;165;53.592;10.044;2022-11-18T16:21:50;15.00;;;14.20;;
353;SDS011;165;53.592;10.044;2022-11-18T16:24:19;13.80;;;13.10;;
353;SDS011;165;53.592;10.044;2022-11-18T16:26:55;14.00;;;13.30;;
353;SDS011;165;53.592;10.044;2022-11-18T16:29:22;14.23;;;13.53;;
353;SDS011;165;53.592;10.044;2022-11-18T16:31:48;13.60;;;12.90;;
353;SDS011;165;53.592;10.044;2022-11-18T16:34:17;11.70;;;11.10;;
353;SDS011;165;53.592;10.044;2022-11-18T16:36:48;12.10;;;11.50;;
353;SDS011;165;53.592;10.044;2022-11-18T16:41:53;12.00;;;11.40;;
353;SDS011;165;53.592;10.044;2022-11-18T16:44:20;10.77;;;10.13;;
353;SDS011;165;53.592;10.044;2022-11-18T16:46:47;12.20;;;11.60;;
353;SDS011;165;53.592;10.044;2022-11-18T16:49:15;12.80;;;12.10;;
353;SDS011;165;53.592;10.044;2022-11-18T16:51:43;12.27;;;11.70;;
353;SDS011;165;53.592;10.044;2022-11-18T16:54:22;11.50;;;10.90;;
353;SDS011;165;53.592;10.044;2022-11-18T16:56:52;10.70;;;10.10;;
353;SDS011;165;53.592;10.044;2022-11-18T16:59:22;10.70;;;10.10;;
353;SDS011;165;53.592;10.044;2022-11-18T17:01:52;11.20;;;10.60;;
353;SDS011;165;53.592;10.044;2022-11-18T17:04:21;10.77;;;10.17;;
353;SDS011;165;53.592;10.044;2022-11-18T17:06:48;10.27;;;9.77;;
353;SDS011;165;53.592;10.044;2022-11-18T17:09:15;11.47;;;10.87;;
353;SDS011;165;53.592;10.044;2022-11-18T17:11:42;10.77;;;10.10;;
353;SDS011;165;53.592;10.044;2022-11-18T17:14:09;10.73;;;10.13;;
353;SDS011;165;53.592;10.044;2022-11-18T17:16:34;11.13;;;10.53;;
353;SDS011;165;53.592;10.044;2022-11-18T17:19:00;29.77;;;22.63;;
353;SDS011;165;53.592;10.044;2022-11-18T17:21:27;11.10;;;10.50;;
353;SDS011;165;53.592;10.044;2022-11-18T17:23:53;14.90;;;14.13;;